Main page
METAR-TAF:

METAR-TAF

Airports :

Oil platform

P11-b, Netherlands

latitude: 52-21-36N, longitude: 3-20-30E, elevation: 24 m

Current weather observation

The report was made 33 minutes ago, at 05:55 UTC
Wind 16 kt from the Northwest, varying between West/Southwest and North
Temperature 7°C
Humidity 81%
Pressure 1015 hPa
Visibility 10 km or more
Few clouds at a height of 1400 ft
Scattered clouds at a height of 1700 ft
Broken clouds at a height of 2100 ft

METAR: EHPG 170555Z AUTO 31016KT 250V350 9999 FEW014 SCT017 BKN021 07/04 Q1015

Time: 07:28 (06:28 UTC)


TAF: missing

Weather observations and forecasts of more than 4000 airports (METAR and TAF reports).

The available stations are represented by yellow and red dots on the map.

Hover mouse over dot to see the name of the station.

Then click to see weather observations and forecasts.

To change the map : click on the green buttons with a black cross to zoom in, on the green button with a dash to zoom out, or on the green arrows for adjacent maps.


METAR-TAF: